Archival Weather

Heathrow

London, United Kingdom (EGLL)

Report from: Monday, July 18, 2022 6:50 PM BST
Current time: Sunday, July 14, 2024 2:47 AM BST

Current weather – Weather history – Daily summaries
Weather forecast

Temperature34.0°C (93.2°F)
Heat index31.9°C (89.4°F)
Dew point7.0°C (44.6°F)
Winds 7 kts (3.6 m/s, 8.1 mph) Vrb
Winds variableWinds variable from South-Southeast (150°) to West-Southwest (250°)
Visibility6.2 mi. (10 km)
Clouds Sky clear
Altimeter30.03 in.Hg (1017 mB)
Relative humidity19 %
Density altitude2,183 ft. (665 m)
Remarks Fully automated report
Corrected report
No clouds detected
No significant changes expected in the next two hours
Flight conditions Visual Meteorological Conditions
Raw dataCOR EGLL 181750Z AUTO 20007KT 150V250 9999 NCD 34/07 Q1017 NOSIG
An error has occurred. This application may no longer respond until reloaded. Reload 🗙